Flight Track Log - Related Links

Times and Time Zones

All times are in EST time to prevent confusion due to time zone crossing. See the N610TA flight status page for this flight to view local times or setup timezone preferences in your user account.


Time Position Orientation Groundspeed Altitude Reporting Facility
EST Latitude Longitude Course Direction KTS MPH feet Rate Location/Type
Mon 08:36:03 PM 41.5097 -81.7019 319° Northwest 127 146 1,200  Level Cleveland Center
Mon 08:37:04 PM 41.5422 -81.7400 319° Northwest 203 234 2,000 716 Climbing Cleveland Center
Mon 08:37:10 PM 41.5500 -81.7447 336° Northwest 235 270 2,000 2,100 Level Cleveland Center
Mon 08:38:04 PM 41.6011 -81.7586 349° North 191 220 4,100 2,143 Climbing Cleveland Center
Mon 08:38:06 PM 41.6000 -81.7597 217° Southwest 212 244 4,000 1,781 Descending Cleveland Center
Mon 08:39:08 PM 41.6475 -81.7689 352° North 185 213 6,000 1,839 Climbing Cleveland Center
Mon 08:40:10 PM 41.6850 -81.8047 324° Northwest 169 194 7,800 1,790 Climbing Cleveland Center
Mon 08:41:12 PM 41.7181 -81.8461 317° Northwest 164 189 9,700 1,597 Climbing Cleveland Center
Mon 08:42:14 PM 41.7483 -81.8811 319° Northwest 149 171 11,100 1,065 Climbing Cleveland Center
Mon 08:43:16 PM 41.7903 -81.9275 320° Northwest 191 220 11,900 976 Climbing Cleveland Center
Mon 08:44:17 PM 41.8444 -81.9894 320° Northwest 215 247 13,100 1,268 Climbing Cleveland Center
Mon 08:45:19 PM 41.8883 -82.0394 320° Northwest 207 238 14,500 1,403 Climbing Cleveland Center
Mon 08:46:21 PM 41.9278 -82.0881 317° Northwest 194 223 16,000 677 Climbing Cleveland Center
Mon 08:47:23 PM 41.9744 -82.1414 320° Northwest 215 247 15,900 -48 Descending Cleveland Center
Mon 08:48:25 PM 42.0267 -82.2033 319° Northwest 246 283 15,900  Level Cleveland Center
Mon 08:49:26 PM 42.0806 -82.2661 319° Northwest 255 293 15,900  Level Cleveland Center
Mon 08:50:28 PM 42.1336 -82.3286 319° Northwest 255 293 15,900 774 Level Cleveland Center
Mon 08:51:30 PM 42.1931 -82.3978 319° Northwest 235 270 17,500 1,645 Climbing Cleveland Center
Mon 08:52:32 PM 42.2339 -82.4469 318° Northwest 203 234 19,300 1,645 Climbing Cleveland Center
Mon 08:53:34 PM 42.2678 -82.4881 318° Northwest 171 197 20,900 1,268 Climbing Cleveland Center
Mon 08:54:35 PM 42.3022 -82.5286 319° Northwest 166 191 21,900 537 Climbing Cleveland Center
Mon 08:55:37 PM 42.3483 -82.5817 320° Northwest 220 253 22,000 48 Climbing Cleveland Center
Mon 08:56:39 PM 42.4033 -82.6439 320° Northwest 252 290 22,000  Level Cleveland Center
Mon 08:57:40 PM 42.4564 -82.7089 318° Northwest 258 297 22,000  Level Cleveland Center
Mon 08:58:42 PM 42.5217 -82.7883 318° Northwest 264 304 22,000  Level Cleveland Center
Mon 08:59:44 PM 42.5761 -82.8525 319° Northwest 262 302 22,000  Level Cleveland Center
Mon 09:00:45 PM 42.6300 -82.9189 318° Northwest 262 302 22,000  Level Cleveland Center
Mon 09:01:47 PM 42.6847 -82.9825 319° Northwest 260 299 22,000 435 Level Cleveland Center
Mon 09:02:49 PM 42.7367 -83.0472 318° Northwest 256 295 22,900 976 Climbing Cleveland Center
Mon 09:03:50 PM 42.7767 -83.0978 317° Northwest 201 231 24,000 537 Climbing Cleveland Center
Mon 09:04:52 PM 42.8356 -83.1678 319° Northwest 230 265 24,000  Level Cleveland Center
Mon 09:05:53 PM 42.8872 -83.2297 319° Northwest 245 282 24,000  Level Cleveland Center
Mon 09:06:55 PM 42.9392 -83.2928 318° Northwest 250 288 24,000  Level Cleveland Center
Mon 09:07:57 PM 42.9914 -83.3558 319° Northwest 251 289 24,000  Level Cleveland Center
Mon 09:08:58 PM 43.0436 -83.4200 318° Northwest 254 292 24,000  Level Cleveland Center
Mon 09:10:00 PM 43.0947 -83.4833 318° Northwest 250 288 24,000  Level Cleveland Center
Mon 09:11:01 PM 43.1478 -83.5464 319° Northwest 254 292 24,000  Level Cleveland Center
Mon 09:12:03 PM 43.2092 -83.6239 317° Northwest 250 288 24,000  Level Cleveland Center
Mon 09:13:04 PM 43.2611 -83.6878 318° Northwest 252 290 24,000  Level Cleveland Center
Mon 09:14:06 PM 43.3144 -83.7514 319° Northwest 254 292 24,000  Level Cleveland Center
Mon 09:15:08 PM 43.3661 -83.8164 318° Northwest 254 292 24,000  Level Cleveland Center
Mon 09:16:03 PM 43.4175 -83.8747 321° Northwest 254 292 24,000  Level Minneapolis Center
Mon 09:17:05 PM 43.4689 -83.9408 317° Northwest 254 292 24,000  Level Minneapolis Center
Mon 09:18:07 PM 43.5197 -84.0072 317° Northwest 254 292 24,000  Level Minneapolis Center
Mon 09:19:09 PM 43.5717 -84.0731 317° Northwest 254 292 24,000  Level Minneapolis Center
Mon 09:20:10 PM 43.6347 -84.1528 318° Northwest 255 293 24,000  Level Minneapolis Center
Mon 09:21:12 PM 43.6892 -84.2178 319° Northwest 257 296 24,000  Level Minneapolis Center
Mon 09:22:14 PM 43.7422 -84.2867 317° Northwest 260 299 24,000 -290 Level Minneapolis Center
Mon 09:23:16 PM 43.7947 -84.3550 317° Northwest 260 299 23,400 -683 Descending Minneapolis Center
Mon 09:24:17 PM 43.8528 -84.4278 318° Northwest 274 315 22,600 -927 Descending Minneapolis Center
Mon 09:25:19 PM 43.9125 -84.5022 318° Northwest 285 328 21,500 -1,113 Descending Minneapolis Center
Mon 09:26:21 PM 43.9697 -84.5767 317° Northwest 285 328 20,300 -1,317 Descending Minneapolis Center
Mon 09:27:22 PM 44.0394 -84.6653 318° Northwest 284 327 18,800 -1,463 Descending Minneapolis Center
Mon 09:28:24 PM 44.0967 -84.7411 316° Northwest 284 327 17,300 -1,220 Descending Minneapolis Center
Mon 09:29:25 PM 44.1539 -84.8131 318° Northwest 281 323 16,300 -927 Descending Minneapolis Center
Mon 09:30:27 PM 44.2069 -84.8806 318° Northwest 269 310 15,400 -968 Descending Minneapolis Center
Mon 09:31:29 PM 44.2611 -84.9500 317° Northwest 265 305 14,300 -1,366 Descending Minneapolis Center
Mon 09:32:30 PM 44.3161 -85.0208 317° Northwest 267 307 12,600 -1,268 Descending Minneapolis Center
Mon 09:33:32 PM 44.3719 -85.0889 319° Northwest 267 307 11,700 -1,171 Descending Minneapolis Center
Mon 09:34:33 PM 44.4472 -85.1511 329° Northwest 263 303 10,200 -1,512 Descending Minneapolis Center
Mon 09:35:35 PM 44.5167 -85.1933 337° Northwest 266 306 8,600 -1,512 Descending Minneapolis Center
Mon 09:36:36 PM 44.5953 -85.1950 359° North 276 318 7,100 -878 Descending Minneapolis Center
Mon 09:37:38 PM 44.6594 -85.1531 25° Northeast 266 306 6,800 -146 Descending Minneapolis Center
Mon 09:38:39 PM 44.7194 -85.1069 29° Northeast 254 292 6,800  Level Minneapolis Center
Mon 09:39:41 PM 44.7422 -85.1522 305° West 215 247 6,800 -244 Level Minneapolis Center
Mon 09:40:42 PM 44.7169 -85.2056 236° Southwest 190 219 6,300 -885 Descending Minneapolis Center
Mon 09:41:43 PM 44.7286 -85.2778 283° West 192 221 5,000 -1,122 Descending Minneapolis Center
Mon 09:42:45 PM 44.7289 -85.3489 270° West 171 197 4,000 -927 Descending Minneapolis Center
Mon 09:43:46 PM 44.7333 -85.4014 277° West 151 174 3,100 -934 Descending Minneapolis Center
Mon 09:44:47 PM 44.7353 -85.4667 272° West 155 178 2,100 -878 Descending Minneapolis Center
Mon 09:45:49 PM 44.7386 -85.5361 274° West 161 185 1,300 -774 Descending Minneapolis Center

Login

Don't have an account? Register now (free) for customized features, flight alerts, and more!